sensor_id;sensor_type;location;lat;lon;timestamp;P1;durP1;ratioP1;P2;durP2;ratioP2
48403;SDS011;34202;52.536;6.042;2023-12-22T00:04:35;22.00;;;3.50;;
48403;SDS011;34202;52.536;6.042;2023-12-22T00:09:35;14.50;;;3.60;;
48403;SDS011;34202;52.536;6.042;2023-12-22T00:14:35;23.30;;;4.00;;
48403;SDS011;34202;52.536;6.042;2023-12-22T00:19:37;16.50;;;4.20;;
48403;SDS011;34202;52.536;6.042;2023-12-22T00:24:37;14.20;;;2.70;;
48403;SDS011;34202;52.536;6.042;2023-12-22T00:29:39;17.70;;;4.00;;
48403;SDS011;34202;52.536;6.042;2023-12-22T00:34:39;22.70;;;2.30;;
48403;SDS011;34202;52.536;6.042;2023-12-22T00:39:39;16.70;;;2.50;;
48403;SDS011;34202;52.536;6.042;2023-12-22T00:44:40;14.60;;;2.60;;
48403;SDS011;34202;52.536;6.042;2023-12-22T00:49:40;19.50;;;3.90;;
48403;SDS011;34202;52.536;6.042;2023-12-22T00:54:40;18.40;;;3.70;;
48403;SDS011;34202;52.536;6.042;2023-12-22T00:59:41;22.90;;;3.30;;
48403;SDS011;34202;52.536;6.042;2023-12-22T01:04:47;25.40;;;3.70;;
48403;SDS011;34202;52.536;6.042;2023-12-22T01:09:47;17.90;;;4.20;;
48403;SDS011;34202;52.536;6.042;2023-12-22T01:14:48;23.60;;;3.20;;
48403;SDS011;34202;52.536;6.042;2023-12-22T01:19:51;16.20;;;4.80;;
48403;SDS011;34202;52.536;6.042;2023-12-22T01:24:52;28.60;;;7.50;;
48403;SDS011;34202;52.536;6.042;2023-12-22T01:29:52;20.60;;;4.80;;
48403;SDS011;34202;52.536;6.042;2023-12-22T01:34:52;13.40;;;3.70;;
48403;SDS011;34202;52.536;6.042;2023-12-22T01:39:53;20.20;;;3.50;;
48403;SDS011;34202;52.536;6.042;2023-12-22T01:44:54;15.80;;;1.70;;
48403;SDS011;34202;52.536;6.042;2023-12-22T01:49:54;12.30;;;3.90;;
48403;SDS011;34202;52.536;6.042;2023-12-22T01:54:55;9.80;;;1.70;;
48403;SDS011;34202;52.536;6.042;2023-12-22T01:59:55;3.20;;;0.60;;
48403;SDS011;34202;52.536;6.042;2023-12-22T02:04:57;2.40;;;0.60;;
48403;SDS011;34202;52.536;6.042;2023-12-22T02:09:58;2.60;;;0.60;;
48403;SDS011;34202;52.536;6.042;2023-12-22T02:14:59;1.80;;;0.50;;
48403;SDS011;34202;52.536;6.042;2023-12-22T02:19:59;5.10;;;1.00;;
48403;SDS011;34202;52.536;6.042;2023-12-22T02:25:01;8.90;;;1.00;;
48403;SDS011;34202;52.536;6.042;2023-12-22T02:30:03;6.20;;;1.20;;
48403;SDS011;34202;52.536;6.042;2023-12-22T02:35:21;15.10;;;1.70;;
48403;SDS011;34202;52.536;6.042;2023-12-22T02:40:24;16.20;;;3.40;;
48403;SDS011;34202;52.536;6.042;2023-12-22T02:45:25;10.50;;;1.60;;
48403;SDS011;34202;52.536;6.042;2023-12-22T02:50:25;17.30;;;2.90;;
48403;SDS011;34202;52.536;6.042;2023-12-22T02:55:26;16.40;;;1.90;;
48403;SDS011;34202;52.536;6.042;2023-12-22T03:00:26;13.80;;;2.00;;
48403;SDS011;34202;52.536;6.042;2023-12-22T03:05:26;13.20;;;3.00;;
48403;SDS011;34202;52.536;6.042;2023-12-22T03:10:28;10.80;;;2.90;;
48403;SDS011;34202;52.536;6.042;2023-12-22T03:15:30;15.60;;;2.20;;
48403;SDS011;34202;52.536;6.042;2023-12-22T03:20:30;9.40;;;1.80;;
48403;SDS011;34202;52.536;6.042;2023-12-22T03:25:30;16.90;;;3.60;;
48403;SDS011;34202;52.536;6.042;2023-12-22T03:30:31;7.90;;;1.40;;
48403;SDS011;34202;52.536;6.042;2023-12-22T03:35:31;12.50;;;1.60;;
48403;SDS011;34202;52.536;6.042;2023-12-22T03:40:32;14.90;;;1.60;;
48403;SDS011;34202;52.536;6.042;2023-12-22T03:45:32;11.00;;;1.40;;
48403;SDS011;34202;52.536;6.042;2023-12-22T03:50:33;21.00;;;3.00;;
48403;SDS011;34202;52.536;6.042;2023-12-22T03:55:33;11.60;;;2.40;;
48403;SDS011;34202;52.536;6.042;2023-12-22T04:00:33;16.90;;;3.60;;
48403;SDS011;34202;52.536;6.042;2023-12-22T04:05:34;14.60;;;3.00;;
48403;SDS011;34202;52.536;6.042;2023-12-22T04:10:35;19.30;;;5.00;;
48403;SDS011;34202;52.536;6.042;2023-12-22T04:15:35;18.10;;;4.70;;
48403;SDS011;34202;52.536;6.042;2023-12-22T04:20:35;17.00;;;3.00;;
48403;SDS011;34202;52.536;6.042;2023-12-22T04:25:36;17.00;;;3.00;;
48403;SDS011;34202;52.536;6.042;2023-12-22T04:30:36;20.80;;;4.80;;
48403;SDS011;34202;52.536;6.042;2023-12-22T04:35:37;22.40;;;3.20;;
48403;SDS011;34202;52.536;6.042;2023-12-22T04:40:37;23.60;;;3.60;;
48403;SDS011;34202;52.536;6.042;2023-12-22T04:45:38;29.00;;;5.40;;
48403;SDS011;34202;52.536;6.042;2023-12-22T04:50:38;28.50;;;3.20;;
48403;SDS011;34202;52.536;6.042;2023-12-22T04:55:38;19.70;;;2.80;;
48403;SDS011;34202;52.536;6.042;2023-12-22T05:00:39;29.60;;;5.00;;
48403;SDS011;34202;52.536;6.042;2023-12-22T05:05:39;17.80;;;4.00;;
48403;SDS011;34202;52.536;6.042;2023-12-22T05:10:39;21.50;;;3.40;;
48403;SDS011;34202;52.536;6.042;2023-12-22T05:15:40;14.90;;;3.70;;
48403;SDS011;34202;52.536;6.042;2023-12-22T05:20:40;21.90;;;4.20;;
48403;SDS011;34202;52.536;6.042;2023-12-22T05:25:41;13.50;;;4.40;;
48403;SDS011;34202;52.536;6.042;2023-12-22T05:30:41;22.20;;;3.20;;
48403;SDS011;34202;52.536;6.042;2023-12-22T05:35:41;23.30;;;5.10;;
48403;SDS011;34202;52.536;6.042;2023-12-22T05:40:42;18.50;;;3.60;;
48403;SDS011;34202;52.536;6.042;2023-12-22T05:45:42;20.70;;;3.40;;
48403;SDS011;34202;52.536;6.042;2023-12-22T05:50:42;20.70;;;3.40;;
48403;SDS011;34202;52.536;6.042;2023-12-22T05:55:43;21.30;;;4.10;;
48403;SDS011;34202;52.536;6.042;2023-12-22T06:00:43;21.00;;;3.80;;
48403;SDS011;34202;52.536;6.042;2023-12-22T06:05:43;32.30;;;4.50;;
48403;SDS011;34202;52.536;6.042;2023-12-22T06:10:44;28.30;;;5.90;;
48403;SDS011;34202;52.536;6.042;2023-12-22T06:15:44;20.60;;;4.00;;
48403;SDS011;34202;52.536;6.042;2023-12-22T06:20:45;21.80;;;5.10;;
48403;SDS011;34202;52.536;6.042;2023-12-22T06:25:45;20.00;;;3.80;;
48403;SDS011;34202;52.536;6.042;2023-12-22T06:30:46;17.70;;;3.70;;
48403;SDS011;34202;52.536;6.042;2023-12-22T06:35:47;12.80;;;2.90;;
48403;SDS011;34202;52.536;6.042;2023-12-22T06:40:48;11.10;;;1.60;;
48403;SDS011;34202;52.536;6.042;2023-12-22T06:45:48;14.40;;;2.50;;
48403;SDS011;34202;52.536;6.042;2023-12-22T06:50:48;10.80;;;1.90;;
48403;SDS011;34202;52.536;6.042;2023-12-22T06:55:49;13.50;;;2.00;;
48403;SDS011;34202;52.536;6.042;2023-12-22T07:02:59;8.80;;;1.70;;
48403;SDS011;34202;52.536;6.042;2023-12-22T07:08:00;16.60;;;2.50;;
48403;SDS011;34202;52.536;6.042;2023-12-22T07:13:00;7.90;;;2.10;;
48403;SDS011;34202;52.536;6.042;2023-12-22T07:18:01;11.90;;;2.90;;
48403;SDS011;34202;52.536;6.042;2023-12-22T07:23:01;16.20;;;2.70;;
48403;SDS011;34202;52.536;6.042;2023-12-22T07:28:01;11.80;;;2.60;;
48403;SDS011;34202;52.536;6.042;2023-12-22T07:33:02;8.60;;;2.00;;
48403;SDS011;34202;52.536;6.042;2023-12-22T07:38:03;10.40;;;2.90;;
48403;SDS011;34202;52.536;6.042;2023-12-22T07:43:03;10.00;;;1.40;;
48403;SDS011;34202;52.536;6.042;2023-12-22T07:48:04;7.30;;;1.30;;
48403;SDS011;34202;52.536;6.042;2023-12-22T07:53:05;6.70;;;1.40;;
48403;SDS011;34202;52.536;6.042;2023-12-22T07:58:05;14.30;;;2.00;;
48403;SDS011;34202;52.536;6.042;2023-12-22T08:03:05;12.00;;;1.70;;
48403;SDS011;34202;52.536;6.042;2023-12-22T08:08:06;12.60;;;2.50;;
48403;SDS011;34202;52.536;6.042;2023-12-22T08:13:06;13.20;;;2.40;;
48403;SDS011;34202;52.536;6.042;2023-12-22T08:18:06;6.70;;;1.70;;
48403;SDS011;34202;52.536;6.042;2023-12-22T08:23:07;5.80;;;1.30;;
48403;SDS011;34202;52.536;6.042;2023-12-22T08:28:07;10.50;;;2.10;;
48403;SDS011;34202;52.536;6.042;2023-12-22T08:33:08;8.00;;;1.60;;
48403;SDS011;34202;52.536;6.042;2023-12-22T08:38:09;15.30;;;3.00;;
48403;SDS011;34202;52.536;6.042;2023-12-22T08:43:09;6.10;;;1.90;;
48403;SDS011;34202;52.536;6.042;2023-12-22T08:48:10;15.20;;;2.70;;
48403;SDS011;34202;52.536;6.042;2023-12-22T08:53:10;20.50;;;2.60;;
48403;SDS011;34202;52.536;6.042;2023-12-22T08:58:12;16.60;;;3.10;;
48403;SDS011;34202;52.536;6.042;2023-12-22T09:03:12;9.70;;;1.90;;
48403;SDS011;34202;52.536;6.042;2023-12-22T09:08:12;11.90;;;2.40;;
48403;SDS011;34202;52.536;6.042;2023-12-22T09:13:13;20.50;;;3.80;;
48403;SDS011;34202;52.536;6.042;2023-12-22T09:18:13;14.30;;;2.80;;
48403;SDS011;34202;52.536;6.042;2023-12-22T09:23:14;9.90;;;2.50;;
48403;SDS011;34202;52.536;6.042;2023-12-22T09:32:46;17.90;;;2.80;;
48403;SDS011;34202;52.536;6.042;2023-12-22T09:37:46;6.40;;;1.70;;
48403;SDS011;34202;52.536;6.042;2023-12-22T09:42:47;13.90;;;2.60;;
48403;SDS011;34202;52.536;6.042;2023-12-22T09:47:48;9.50;;;1.70;;
48403;SDS011;34202;52.536;6.042;2023-12-22T09:52:51;6.30;;;1.60;;
48403;SDS011;34202;52.536;6.042;2023-12-22T09:57:52;10.10;;;2.00;;
48403;SDS011;34202;52.536;6.042;2023-12-22T10:02:54;7.20;;;0.80;;
48403;SDS011;34202;52.536;6.042;2023-12-22T10:07:54;9.90;;;1.70;;
48403;SDS011;34202;52.536;6.042;2023-12-22T10:12:57;3.30;;;0.90;;
48403;SDS011;34202;52.536;6.042;2023-12-22T10:17:59;3.30;;;1.00;;
48403;SDS011;34202;52.536;6.042;2023-12-22T10:22:59;5.90;;;1.20;;
48403;SDS011;34202;52.536;6.042;2023-12-22T10:28:00;4.50;;;1.10;;
48403;SDS011;34202;52.536;6.042;2023-12-22T10:33:03;12.40;;;1.20;;
48403;SDS011;34202;52.536;6.042;2023-12-22T10:38:04;9.40;;;1.40;;
48403;SDS011;34202;52.536;6.042;2023-12-22T10:43:04;2.90;;;0.70;;
48403;SDS011;34202;52.536;6.042;2023-12-22T10:48:05;4.60;;;1.00;;
48403;SDS011;34202;52.536;6.042;2023-12-22T10:53:07;7.20;;;1.00;;
48403;SDS011;34202;52.536;6.042;2023-12-22T10:58:07;1.40;;;0.50;;
48403;SDS011;34202;52.536;6.042;2023-12-22T11:03:09;2.80;;;0.60;;
48403;SDS011;34202;52.536;6.042;2023-12-22T11:08:12;3.10;;;0.80;;
48403;SDS011;34202;52.536;6.042;2023-12-22T11:13:14;2.20;;;0.60;;
48403;SDS011;34202;52.536;6.042;2023-12-22T11:18:16;2.80;;;1.70;;
48403;SDS011;34202;52.536;6.042;2023-12-22T11:23:18;2.20;;;0.60;;
48403;SDS011;34202;52.536;6.042;2023-12-22T11:28:20;3.10;;;0.90;;
48403;SDS011;34202;52.536;6.042;2023-12-22T11:33:22;2.40;;;0.60;;
48403;SDS011;34202;52.536;6.042;2023-12-22T11:38:27;7.30;;;1.10;;
48403;SDS011;34202;52.536;6.042;2023-12-22T11:43:27;6.20;;;1.00;;
48403;SDS011;34202;52.536;6.042;2023-12-22T11:48:28;2.80;;;1.00;;
48403;SDS011;34202;52.536;6.042;2023-12-22T11:53:30;2.40;;;0.70;;
48403;SDS011;34202;52.536;6.042;2023-12-22T11:58:43;5.40;;;0.70;;
48403;SDS011;34202;52.536;6.042;2023-12-22T12:03:58;3.70;;;0.90;;
48403;SDS011;34202;52.536;6.042;2023-12-22T12:09:04;5.30;;;0.50;;
48403;SDS011;34202;52.536;6.042;2023-12-22T12:14:08;4.40;;;0.90;;
48403;SDS011;34202;52.536;6.042;2023-12-22T12:19:11;3.40;;;0.60;;
48403;SDS011;34202;52.536;6.042;2023-12-22T12:24:12;7.20;;;1.50;;
48403;SDS011;34202;52.536;6.042;2023-12-22T12:29:12;4.20;;;0.70;;
48403;SDS011;34202;52.536;6.042;2023-12-22T12:34:13;5.80;;;0.80;;
48403;SDS011;34202;52.536;6.042;2023-12-22T12:39:16;4.80;;;0.80;;
48403;SDS011;34202;52.536;6.042;2023-12-22T12:44:21;3.30;;;0.80;;
48403;SDS011;34202;52.536;6.042;2023-12-22T12:49:23;2.00;;;0.50;;
48403;SDS011;34202;52.536;6.042;2023-12-22T12:54:27;1.90;;;0.60;;
48403;SDS011;34202;52.536;6.042;2023-12-22T12:59:28;2.30;;;0.80;;
48403;SDS011;34202;52.536;6.042;2023-12-22T13:04:38;2.90;;;0.50;;
48403;SDS011;34202;52.536;6.042;2023-12-22T13:09:39;3.50;;;0.70;;
48403;SDS011;34202;52.536;6.042;2023-12-22T13:14:39;2.10;;;0.80;;
48403;SDS011;34202;52.536;6.042;2023-12-22T13:19:39;3.30;;;0.60;;
48403;SDS011;34202;52.536;6.042;2023-12-22T13:24:40;5.50;;;0.90;;
48403;SDS011;34202;52.536;6.042;2023-12-22T13:29:44;2.60;;;1.10;;
48403;SDS011;34202;52.536;6.042;2023-12-22T13:34:48;7.20;;;2.00;;
48403;SDS011;34202;52.536;6.042;2023-12-22T13:39:50;7.70;;;0.60;;
48403;SDS011;34202;52.536;6.042;2023-12-22T13:44:51;7.40;;;0.90;;
48403;SDS011;34202;52.536;6.042;2023-12-22T13:49:52;7.30;;;1.10;;
48403;SDS011;34202;52.536;6.042;2023-12-22T13:54:53;7.70;;;1.80;;
48403;SDS011;34202;52.536;6.042;2023-12-22T13:59:56;7.20;;;1.30;;
48403;SDS011;34202;52.536;6.042;2023-12-22T14:04:57;11.10;;;2.60;;
48403;SDS011;34202;52.536;6.042;2023-12-22T14:09:57;12.10;;;1.70;;
48403;SDS011;34202;52.536;6.042;2023-12-22T14:15:07;15.40;;;2.20;;
48403;SDS011;34202;52.536;6.042;2023-12-22T14:20:08;10.60;;;2.60;;
48403;SDS011;34202;52.536;6.042;2023-12-22T14:25:09;21.80;;;4.50;;
48403;SDS011;34202;52.536;6.042;2023-12-22T14:30:10;13.70;;;2.40;;
48403;SDS011;34202;52.536;6.042;2023-12-22T14:35:11;34.10;;;5.30;;
48403;SDS011;34202;52.536;6.042;2023-12-22T14:40:12;17.70;;;4.90;;
48403;SDS011;34202;52.536;6.042;2023-12-22T14:45:12;13.00;;;2.30;;
48403;SDS011;34202;52.536;6.042;2023-12-22T14:50:12;20.70;;;3.90;;
48403;SDS011;34202;52.536;6.042;2023-12-22T14:55:13;3.30;;;0.90;;
48403;SDS011;34202;52.536;6.042;2023-12-22T15:00:14;2.60;;;0.70;;
48403;SDS011;34202;52.536;6.042;2023-12-22T15:05:16;1.00;;;0.50;;
48403;SDS011;34202;52.536;6.042;2023-12-22T15:10:17;3.40;;;0.70;;
48403;SDS011;34202;52.536;6.042;2023-12-22T15:15:18;4.80;;;0.90;;
48403;SDS011;34202;52.536;6.042;2023-12-22T15:20:18;4.40;;;0.80;;
48403;SDS011;34202;52.536;6.042;2023-12-22T15:25:18;3.70;;;0.70;;
48403;SDS011;34202;52.536;6.042;2023-12-22T15:30:21;5.70;;;1.40;;
48403;SDS011;34202;52.536;6.042;2023-12-22T15:35:21;3.40;;;0.70;;
48403;SDS011;34202;52.536;6.042;2023-12-22T15:40:22;2.60;;;0.70;;
48403;SDS011;34202;52.536;6.042;2023-12-22T15:45:22;6.30;;;1.00;;
48403;SDS011;34202;52.536;6.042;2023-12-22T15:50:22;11.10;;;1.30;;
48403;SDS011;34202;52.536;6.042;2023-12-22T15:55:23;6.20;;;1.20;;
48403;SDS011;34202;52.536;6.042;2023-12-22T16:00:23;13.10;;;1.30;;
48403;SDS011;34202;52.536;6.042;2023-12-22T16:05:25;10.40;;;1.30;;
48403;SDS011;34202;52.536;6.042;2023-12-22T16:10:28;3.40;;;0.90;;
48403;SDS011;34202;52.536;6.042;2023-12-22T16:15:28;13.90;;;2.30;;
48403;SDS011;34202;52.536;6.042;2023-12-22T16:20:28;8.50;;;1.60;;
48403;SDS011;34202;52.536;6.042;2023-12-22T16:25:29;10.80;;;2.00;;
48403;SDS011;34202;52.536;6.042;2023-12-22T16:30:30;18.70;;;4.40;;
48403;SDS011;34202;52.536;6.042;2023-12-22T16:35:30;15.00;;;5.80;;
48403;SDS011;34202;52.536;6.042;2023-12-22T16:40:31;7.50;;;1.30;;
48403;SDS011;34202;52.536;6.042;2023-12-22T16:45:31;8.80;;;2.60;;
48403;SDS011;34202;52.536;6.042;2023-12-22T16:50:31;9.10;;;1.60;;
48403;SDS011;34202;52.536;6.042;2023-12-22T16:55:32;5.90;;;1.50;;
48403;SDS011;34202;52.536;6.042;2023-12-22T17:00:32;10.50;;;1.60;;
48403;SDS011;34202;52.536;6.042;2023-12-22T17:05:33;8.40;;;1.50;;
48403;SDS011;34202;52.536;6.042;2023-12-22T17:10:33;11.80;;;1.30;;
48403;SDS011;34202;52.536;6.042;2023-12-22T17:15:34;4.30;;;1.40;;
48403;SDS011;34202;52.536;6.042;2023-12-22T17:20:34;4.80;;;1.00;;
48403;SDS011;34202;52.536;6.042;2023-12-22T17:25:35;2.70;;;0.80;;
48403;SDS011;34202;52.536;6.042;2023-12-22T17:30:35;11.50;;;1.40;;
48403;SDS011;34202;52.536;6.042;2023-12-22T17:35:36;12.10;;;1.40;;
48403;SDS011;34202;52.536;6.042;2023-12-22T17:40:37;5.20;;;1.00;;
48403;SDS011;34202;52.536;6.042;2023-12-22T17:45:37;4.90;;;1.50;;
48403;SDS011;34202;52.536;6.042;2023-12-22T17:50:37;7.70;;;0.90;;
48403;SDS011;34202;52.536;6.042;2023-12-22T17:55:38;5.50;;;0.80;;
48403;SDS011;34202;52.536;6.042;2023-12-22T18:00:38;5.40;;;1.20;;
48403;SDS011;34202;52.536;6.042;2023-12-22T18:08:48;5.00;;;1.50;;
48403;SDS011;34202;52.536;6.042;2023-12-22T18:13:49;1.80;;;0.80;;
48403;SDS011;34202;52.536;6.042;2023-12-22T18:18:54;4.20;;;1.00;;
48403;SDS011;34202;52.536;6.042;2023-12-22T18:23:54;6.90;;;1.20;;
48403;SDS011;34202;52.536;6.042;2023-12-22T18:28:55;8.50;;;1.30;;
48403;SDS011;34202;52.536;6.042;2023-12-22T18:33:56;9.30;;;1.30;;
48403;SDS011;34202;52.536;6.042;2023-12-22T18:38:56;5.90;;;1.00;;
48403;SDS011;34202;52.536;6.042;2023-12-22T18:43:58;5.60;;;1.50;;
48403;SDS011;34202;52.536;6.042;2023-12-22T18:48:58;6.30;;;1.20;;
48403;SDS011;34202;52.536;6.042;2023-12-22T18:53:59;6.90;;;1.30;;
48403;SDS011;34202;52.536;6.042;2023-12-22T18:58:59;8.90;;;1.30;;
48403;SDS011;34202;52.536;6.042;2023-12-22T19:03:59;7.50;;;1.00;;
48403;SDS011;34202;52.536;6.042;2023-12-22T19:09:00;7.80;;;1.10;;
48403;SDS011;34202;52.536;6.042;2023-12-22T19:14:00;9.40;;;1.20;;
48403;SDS011;34202;52.536;6.042;2023-12-22T19:19:00;10.80;;;1.30;;
48403;SDS011;34202;52.536;6.042;2023-12-22T19:24:01;8.60;;;2.10;;
48403;SDS011;34202;52.536;6.042;2023-12-22T19:29:01;6.00;;;2.10;;
48403;SDS011;34202;52.536;6.042;2023-12-22T19:34:02;7.30;;;1.30;;
48403;SDS011;34202;52.536;6.042;2023-12-22T19:39:03;10.20;;;3.10;;
48403;SDS011;34202;52.536;6.042;2023-12-22T19:44:04;10.30;;;1.20;;
48403;SDS011;34202;52.536;6.042;2023-12-22T19:49:04;9.60;;;1.80;;
48403;SDS011;34202;52.536;6.042;2023-12-22T19:54:04;6.60;;;1.90;;
48403;SDS011;34202;52.536;6.042;2023-12-22T19:59:05;11.50;;;1.50;;
48403;SDS011;34202;52.536;6.042;2023-12-22T20:04:06;13.20;;;4.10;;
48403;SDS011;34202;52.536;6.042;2023-12-22T20:09:07;11.30;;;1.40;;
48403;SDS011;34202;52.536;6.042;2023-12-22T20:14:08;11.20;;;1.90;;
48403;SDS011;34202;52.536;6.042;2023-12-22T20:19:08;12.10;;;2.60;;
48403;SDS011;34202;52.536;6.042;2023-12-22T20:24:08;12.30;;;3.70;;
48403;SDS011;34202;52.536;6.042;2023-12-22T20:29:09;16.50;;;2.20;;
48403;SDS011;34202;52.536;6.042;2023-12-22T20:34:09;14.90;;;2.20;;
48403;SDS011;34202;52.536;6.042;2023-12-22T20:39:10;11.30;;;1.40;;
48403;SDS011;34202;52.536;6.042;2023-12-22T20:44:10;12.40;;;1.70;;
48403;SDS011;34202;52.536;6.042;2023-12-22T20:49:10;13.30;;;1.70;;
48403;SDS011;34202;52.536;6.042;2023-12-22T20:54:12;10.00;;;1.60;;
48403;SDS011;34202;52.536;6.042;2023-12-22T20:59:16;8.10;;;1.80;;
48403;SDS011;34202;52.536;6.042;2023-12-22T21:04:16;17.30;;;2.60;;
48403;SDS011;34202;52.536;6.042;2023-12-22T21:09:17;11.50;;;2.70;;
48403;SDS011;34202;52.536;6.042;2023-12-22T21:14:17;9.10;;;1.60;;
48403;SDS011;34202;52.536;6.042;2023-12-22T21:19:17;9.50;;;1.60;;
48403;SDS011;34202;52.536;6.042;2023-12-22T21:24:19;12.90;;;3.10;;
48403;SDS011;34202;52.536;6.042;2023-12-22T21:29:19;7.30;;;1.40;;
48403;SDS011;34202;52.536;6.042;2023-12-22T21:34:20;8.90;;;1.70;;
48403;SDS011;34202;52.536;6.042;2023-12-22T21:39:21;6.40;;;1.40;;
48403;SDS011;34202;52.536;6.042;2023-12-22T21:44:22;11.40;;;3.00;;
48403;SDS011;34202;52.536;6.042;2023-12-22T21:49:23;15.40;;;2.40;;
48403;SDS011;34202;52.536;6.042;2023-12-22T21:54:23;16.20;;;2.20;;
48403;SDS011;34202;52.536;6.042;2023-12-22T21:59:24;18.80;;;4.20;;
48403;SDS011;34202;52.536;6.042;2023-12-22T22:04:26;16.80;;;1.50;;
48403;SDS011;34202;52.536;6.042;2023-12-22T22:09:28;19.90;;;4.00;;
48403;SDS011;34202;52.536;6.042;2023-12-22T22:14:29;22.50;;;3.60;;
48403;SDS011;34202;52.536;6.042;2023-12-22T22:19:29;14.50;;;2.30;;
48403;SDS011;34202;52.536;6.042;2023-12-22T22:24:29;11.50;;;1.60;;
48403;SDS011;34202;52.536;6.042;2023-12-22T22:29:30;6.10;;;2.00;;
48403;SDS011;34202;52.536;6.042;2023-12-22T22:34:30;13.50;;;1.60;;
48403;SDS011;34202;52.536;6.042;2023-12-22T22:39:33;13.70;;;2.00;;
48403;SDS011;34202;52.536;6.042;2023-12-22T22:44:39;5.00;;;1.20;;
48403;SDS011;34202;52.536;6.042;2023-12-22T22:49:43;13.70;;;2.90;;
48403;SDS011;34202;52.536;6.042;2023-12-22T22:54:44;11.50;;;1.90;;
48403;SDS011;34202;52.536;6.042;2023-12-22T22:59:44;10.50;;;1.90;;
48403;SDS011;34202;52.536;6.042;2023-12-22T23:04:44;10.90;;;1.90;;
48403;SDS011;34202;52.536;6.042;2023-12-22T23:09:45;10.90;;;1.90;;
48403;SDS011;34202;52.536;6.042;2023-12-22T23:14:45;10.50;;;1.90;;
48403;SDS011;34202;52.536;6.042;2023-12-22T23:19:45;7.70;;;2.10;;
48403;SDS011;34202;52.536;6.042;2023-12-22T23:24:46;10.00;;;1.80;;
48403;SDS011;34202;52.536;6.042;2023-12-22T23:29:46;5.90;;;1.60;;
48403;SDS011;34202;52.536;6.042;2023-12-22T23:34:46;12.70;;;2.40;;
48403;SDS011;34202;52.536;6.042;2023-12-22T23:39:47;12.20;;;2.30;;
48403;SDS011;34202;52.536;6.042;2023-12-22T23:44:47;10.10;;;1.70;;
48403;SDS011;34202;52.536;6.042;2023-12-22T23:49:47;9.80;;;2.50;;
48403;SDS011;34202;52.536;6.042;2023-12-22T23:54:48;9.30;;;2.60;;
48403;SDS011;34202;52.536;6.042;2023-12-22T23:59:48;17.60;;;2.80;;
